createdAt,value
2018-01-16T06:33:25.830Z,0.1
2018-01-16T06:35:25.589Z,0.2
2018-01-16T06:36:25.571Z,0.3
2018-01-16T06:38:25.767Z,0.5
2018-01-16T06:39:25.565Z,0.6
2018-01-16T06:40:25.597Z,0.7
2018-01-16T06:41:25.601Z,0.9
2018-01-16T06:42:25.567Z,1.1
2018-01-16T06:43:25.810Z,1.4
2018-01-16T06:44:25.566Z,1.7
2018-01-16T06:45:25.597Z,1.9
2018-01-16T06:46:25.573Z,2.1
2018-01-16T06:47:25.569Z,2.4
2018-01-16T06:48:25.774Z,2.6
2018-01-16T06:49:25.568Z,2.9
2018-01-16T06:50:25.599Z,3.1
2018-01-16T06:51:25.575Z,3.3
2018-01-16T06:52:26.599Z,3.4
2018-01-16T06:53:25.831Z,3.5
2018-01-16T06:55:25.710Z,3.7
2018-01-16T06:56:25.574Z,3.8
2018-01-16T06:57:25.577Z,4.0
2018-01-16T06:58:25.783Z,4.2
2018-01-16T06:59:25.577Z,4.6
2018-01-16T07:00:25.613Z,5.1
2018-01-16T07:01:25.580Z,5.5
2018-01-16T07:02:25.586Z,5.7
2018-01-16T07:03:25.785Z,6.1
2018-01-16T07:04:25.586Z,6.3
2018-01-16T07:05:25.616Z,6.7
2018-01-16T07:06:25.852Z,7.3
2018-01-16T07:07:25.588Z,8.3
2018-01-16T07:08:25.797Z,10.3
2018-01-16T07:09:25.590Z,13.1
2018-01-16T07:10:25.625Z,16.7
2018-01-16T07:11:25.591Z,20.5
2018-01-16T07:12:25.600Z,25.9
2018-01-16T07:13:25.806Z,33.7
2018-01-16T07:14:25.597Z,42.0
2018-01-16T07:15:25.630Z,50.7
2018-01-16T07:16:25.601Z,60.4
2018-01-16T07:17:25.601Z,71.8
2018-01-16T07:18:25.806Z,85.2
2018-01-16T07:19:25.606Z,102.5
2018-01-16T07:20:25.631Z,122.8
2018-01-16T07:21:25.601Z,148.0
2018-01-16T07:22:25.611Z,174.1
2018-01-16T07:23:25.825Z,200.8
2018-01-16T07:24:25.610Z,229.3
2018-01-16T07:25:25.886Z,260.1
2018-01-16T07:26:25.609Z,296.8
2018-01-16T07:27:25.599Z,340.1
2018-01-16T07:28:25.814Z,379.6
2018-01-16T07:29:25.611Z,414.2
2018-01-16T07:30:25.880Z,445.1
2018-01-16T07:31:25.642Z,467.1
2018-01-16T07:32:25.620Z,480.1
2018-01-16T07:33:25.816Z,494.6
2018-01-16T07:34:25.614Z,507.7
2018-01-16T07:35:25.617Z,534.7
2018-01-16T07:36:25.880Z,586.1
2018-01-16T07:37:25.619Z,684.4
2018-01-16T07:38:25.827Z,816.4
2018-01-16T07:39:25.620Z,970.7
2018-01-16T07:40:25.622Z,1140.9
2018-01-16T07:41:25.641Z,1322.7
2018-01-16T07:42:25.616Z,1505.7
2018-01-16T07:43:25.818Z,1708.0
2018-01-16T07:44:25.619Z,1916.6
2018-01-16T07:45:25.616Z,2068.0
2018-01-16T07:46:25.646Z,2196.7
2018-01-16T07:47:25.620Z,2351.7
2018-01-16T07:48:25.828Z,2522.8
2018-01-16T07:49:25.617Z,2752.7
2018-01-16T07:50:25.668Z,3068.4
2018-01-16T07:51:25.643Z,3406.6
2018-01-16T07:52:25.648Z,3712.6
2018-01-16T07:53:25.879Z,4055.5
2018-01-16T07:54:25.629Z,4511.4
2018-01-16T07:55:25.623Z,5040.7
2018-01-16T07:56:25.655Z,5486.5
2018-01-16T07:57:25.617Z,5803.9
2018-01-16T07:58:25.857Z,6093.3
2018-01-16T07:59:25.623Z,6533.3
2018-01-16T08:00:25.619Z,7200.9
2018-01-16T08:01:25.655Z,7816.2
2018-01-16T08:02:25.630Z,8387.7
2018-01-16T08:03:25.824Z,8864.3
2018-01-16T08:04:30.626Z,9135.3
2018-01-16T08:05:26.651Z,9338.7
2018-01-16T08:06:26.682Z,9717.1
2018-01-16T08:07:25.620Z,10269.9
2018-01-16T08:08:25.828Z,10851.9
2018-01-16T08:09:25.624Z,11221.5
2018-01-16T08:10:25.646Z,11582.6
2018-01-16T08:11:25.649Z,11876.1
2018-01-16T08:12:25.620Z,12257.6
2018-01-16T08:13:25.828Z,12816.4
2018-01-16T08:14:25.620Z,13376.5
2018-01-16T08:15:30.626Z,13861.7
2018-01-16T08:16:25.650Z,15346.5
2018-01-16T08:17:25.618Z,16680.7
2018-01-16T08:18:25.893Z,17963.9
2018-01-16T08:19:25.686Z,19251.1
2018-01-16T08:20:25.684Z,19923.7
2018-01-16T08:21:25.786Z,20158.1
2018-01-16T08:22:25.688Z,20175.1
2018-01-16T08:23:25.955Z,20082.2
2018-01-16T08:24:25.689Z,20081.3
2018-01-16T08:25:25.627Z,19909.1
2018-01-16T08:26:26.691Z,19707.2
2018-01-16T08:27:25.631Z,19370.7
2018-01-16T08:28:25.949Z,18765.5
2018-01-16T08:29:25.660Z,17871.5
2018-01-16T08:30:25.623Z,16783.4
2018-01-16T08:31:25.660Z,14730.9
2018-01-16T08:32:25.625Z,12954.4
2018-01-16T08:33:25.856Z,11285.7
2018-01-16T08:34:25.633Z,9702.1
2018-01-16T08:35:25.631Z,8659.7
2018-01-16T08:36:25.662Z,7805.9
2018-01-16T08:37:25.657Z,6976.9
2018-01-16T08:38:25.904Z,6147.9
2018-01-16T08:39:25.641Z,5296.7
2018-01-16T08:40:25.631Z,4559.9
2018-01-16T08:41:25.667Z,3997.9
2018-01-16T08:42:25.646Z,3588.1
2018-01-16T08:43:25.843Z,3296.3
2018-01-16T08:44:25.635Z,3165.7
2018-01-16T08:45:25.631Z,3173.9
2018-01-16T08:46:25.665Z,3291.7
2018-01-16T08:47:25.630Z,3393.9
2018-01-16T08:48:25.836Z,3716.2
2018-01-16T08:49:25.640Z,4231.4
2018-01-16T08:50:25.634Z,4937.3
2018-01-16T08:51:25.666Z,6013.2
2018-01-16T08:52:25.635Z,7733.7
2018-01-16T08:53:25.843Z,10122.3
2018-01-16T08:54:25.631Z,12752.1
2018-01-16T08:55:25.637Z,15714.1
2018-01-16T08:56:25.668Z,19066.2
2018-01-16T08:57:25.634Z,22549.9
2018-01-16T08:58:25.860Z,26080.8
2018-01-16T08:59:25.637Z,29482.5
2018-01-16T09:00:25.636Z,32523.9
2018-01-16T09:01:25.666Z,35409.6
2018-01-16T09:02:25.632Z,38270.1
2018-01-16T09:03:25.794Z,41220.0
2018-01-16T09:04:25.634Z,43907.9
2018-01-16T09:05:25.636Z,45310.3
2018-01-16T09:06:25.672Z,45839.3
2018-01-16T09:07:25.637Z,45583.3
2018-01-16T09:08:25.849Z,44734.0
2018-01-16T09:09:25.635Z,44067.2
2018-01-16T09:10:25.643Z,43195.0
2018-01-16T09:11:25.671Z,41843.2
2018-01-16T09:12:25.641Z,40414.7
2018-01-16T09:13:25.838Z,39355.6
2018-01-16T09:14:25.639Z,39134.0
2018-01-16T09:15:25.646Z,40196.9
2018-01-16T09:16:25.672Z,41353.8
2018-01-16T09:17:25.642Z,42451.0
2018-01-16T09:18:25.931Z,43257.1
2018-01-16T09:19:25.650Z,43873.9
2018-01-16T09:20:25.640Z,45455.0
2018-01-16T09:21:25.674Z,47939.8
2018-01-16T09:22:25.642Z,50672.0
2018-01-16T09:23:27.953Z,52596.4
2018-01-16T09:24:25.635Z,52910.5
2018-01-16T09:25:25.637Z,52184.3
2018-01-16T09:26:25.668Z,51203.1
2018-01-16T09:27:25.640Z,50175.9
2018-01-16T09:28:25.847Z,48422.3
2018-01-16T09:29:25.663Z,45612.9
2018-01-16T09:30:25.641Z,41676.7
2018-01-16T09:31:25.662Z,37736.3
2018-01-16T09:32:25.642Z,33756.6
2018-01-16T09:33:25.904Z,29749.9
2018-01-16T09:34:25.641Z,26021.7
2018-01-16T09:35:25.641Z,22425.3
2018-01-16T09:36:25.898Z,18493.5
2018-01-16T09:37:25.648Z,14597.8
2018-01-16T09:38:25.907Z,11482.7
2018-01-16T09:39:25.647Z,9602.0
2018-01-16T09:40:25.644Z,8709.8
2018-01-16T09:41:30.645Z,8207.9
2018-01-16T09:42:25.645Z,7666.7
2018-01-16T09:43:25.879Z,7471.3
2018-01-16T09:44:25.642Z,7769.1
2018-01-16T09:45:25.645Z,8438.0
2018-01-16T09:46:25.651Z,9234.1
2018-01-16T09:47:25.646Z,10124.9
2018-01-16T09:48:25.844Z,11207.7
2018-01-16T09:49:25.644Z,12675.5
2018-01-16T09:50:25.647Z,14389.0
2018-01-16T09:51:25.647Z,16246.7
2018-01-16T09:52:25.649Z,18354.7
2018-01-16T09:53:25.922Z,20947.4
2018-01-16T09:54:25.643Z,23617.1
2018-01-16T09:55:25.647Z,26054.5
2018-01-16T09:56:25.648Z,28455.1
2018-01-16T09:57:25.650Z,31389.0
2018-01-16T09:58:25.878Z,34557.1
2018-01-16T09:59:25.645Z,37475.6
2018-01-16T10:00:25.645Z,40028.0
2018-01-16T10:01:25.645Z,42538.2
2018-01-16T10:02:25.643Z,44838.0
2018-01-16T10:03:25.879Z,46517.4
2018-01-16T10:04:25.644Z,47660.5
2018-01-16T10:05:25.642Z,48356.9
2018-01-16T10:06:25.665Z,48670.9
2018-01-16T10:07:25.644Z,48381.5
2018-01-16T10:08:25.881Z,47782.7
2018-01-16T10:09:25.641Z,47297.9
2018-01-16T10:10:25.673Z,47188.6
2018-01-16T10:11:25.643Z,47326.5
2018-01-16T10:12:25.648Z,47463.4
2018-01-16T10:13:25.911Z,47920.7
2018-01-16T10:14:25.645Z,48321.7
2018-01-16T10:15:25.642Z,49036.6
2018-01-16T10:16:25.642Z,49670.7
2018-01-16T10:17:25.644Z,50318.5
2018-01-16T10:18:25.903Z,51014.4
2018-01-16T10:19:25.643Z,51185.3
2018-01-16T10:20:25.679Z,50951.1
2018-01-16T10:21:26.672Z,51066.0
2018-01-16T10:22:25.648Z,52081.1
2018-01-16T10:23:25.912Z,53591.2
2018-01-16T10:24:25.649Z,55172.9
2018-01-16T10:25:25.647Z,55053.6
2018-01-16T10:26:25.644Z,54051.9
2018-01-16T10:27:25.648Z,52390.5
2018-01-16T10:28:25.911Z,50521.3
2018-01-16T10:29:25.646Z,49327.7
2018-01-16T10:30:25.649Z,48957.3
2018-01-16T10:32:25.649Z,49098.7
2018-01-16T10:33:27.007Z,49647.2
2018-01-16T10:34:25.649Z,50265.9
2018-01-16T10:35:25.675Z,50111.6
2018-01-16T10:36:25.647Z,49415.3
2018-01-16T10:37:25.647Z,47624.3
2018-01-16T10:38:25.884Z,45043.8
2018-01-16T10:39:25.654Z,42169.5
2018-01-16T10:40:25.658Z,40866.1
2018-01-16T10:41:25.645Z,40185.3
2018-01-16T10:42:25.650Z,39546.1
2018-01-16T10:43:26.123Z,38185.1
2018-01-16T10:44:25.654Z,36181.9
2018-01-16T10:45:26.686Z,33424.8
2018-01-16T10:46:25.653Z,30805.3
2018-01-16T10:47:25.651Z,28238.0
2018-01-16T10:48:25.887Z,25713.5
2018-01-16T10:49:25.653Z,23740.3
2018-01-16T10:50:25.687Z,23289.3
2018-01-16T10:51:25.647Z,23409.1
2018-01-16T10:52:25.649Z,23962.9
2018-01-16T10:53:25.883Z,24767.7
2018-01-16T10:54:25.646Z,25807.5
2018-01-16T10:55:25.685Z,27549.8
2018-01-16T10:56:25.653Z,30347.3
2018-01-16T10:57:25.652Z,33274.8
2018-01-16T10:58:25.876Z,36524.5
2018-01-16T10:59:25.652Z,39874.7
2018-01-16T11:00:25.675Z,43002.1
2018-01-16T11:01:25.650Z,45621.6
2018-01-16T11:02:25.651Z,48188.9
2018-01-16T11:03:25.854Z,50713.4
2018-01-16T11:04:25.654Z,53327.7
2018-01-16T11:05:25.679Z,55836.4
2018-01-16T11:06:25.902Z,58162.7
2018-01-16T11:07:25.654Z,60461.7
2018-01-16T11:08:25.854Z,62590.0
2018-01-16T11:09:25.649Z,64471.4
2018-01-16T11:10:25.685Z,65535.0
2018-01-16T11:15:25.978Z,65535.0
2018-01-16T11:30:25.984Z,65535.0
2018-01-16T11:39:25.939Z,65446.1
2018-01-16T11:40:25.655Z,64445.1
2018-01-16T11:41:25.651Z,62995.9
2018-01-16T11:42:25.657Z,61379.7
2018-01-16T11:43:25.650Z,59984.7
2018-01-16T11:44:25.948Z,59142.4
2018-01-16T11:45:25.649Z,58652.4
2018-01-16T11:46:25.654Z,58437.1
2018-01-16T11:47:25.647Z,57994.2
2018-01-16T11:48:25.656Z,56738.0
2018-01-16T11:49:25.885Z,55142.9
2018-01-16T11:50:25.658Z,53457.9
2018-01-16T11:51:25.650Z,51544.7
2018-01-16T11:52:25.650Z,49403.3
2018-01-16T11:53:25.890Z,46943.5
2018-01-16T11:54:30.892Z,44712.9
2018-01-16T11:55:25.649Z,43680.9
2018-01-16T11:56:25.658Z,43898.4
2018-01-16T11:57:25.694Z,45047.9
2018-01-16T11:58:25.645Z,46442.9
2018-01-16T11:59:25.856Z,47285.1
2018-01-16T12:00:25.687Z,47775.1
2018-01-16T12:01:25.650Z,47990.4
2018-01-16T12:02:25.646Z,48433.3
2018-01-16T12:03:25.650Z,49689.5
2018-01-16T12:04:25.881Z,51284.6
2018-01-16T12:05:25.649Z,52969.7
2018-01-16T12:06:25.681Z,54882.9
2018-01-16T12:07:25.645Z,57024.2
2018-01-16T12:08:25.644Z,59484.0
2018-01-16T12:09:25.877Z,61803.5
2018-01-16T12:10:25.651Z,63836.5
2018-01-16T12:11:25.650Z,65068.3
2018-01-16T12:12:25.648Z,65535.0
2018-01-16T12:14:25.904Z,65162.3
2018-01-16T12:15:25.649Z,64786.3
2018-01-16T12:16:25.652Z,63897.4
2018-01-16T12:17:25.653Z,62332.3
2018-01-16T12:18:25.648Z,60346.6
2018-01-16T12:19:25.889Z,58002.6
2018-01-16T12:20:25.648Z,55817.4
2018-01-16T12:21:25.649Z,53844.5
2018-01-16T12:22:25.644Z,51680.3
2018-01-16T12:23:25.649Z,49421.1
2018-01-16T12:24:25.885Z,46912.8
2018-01-16T12:25:25.645Z,44419.3
2018-01-16T12:26:25.666Z,41528.1
2018-01-16T12:27:25.651Z,38333.2
2018-01-16T12:28:25.679Z,35001.9
2018-01-16T12:29:25.859Z,31998.6
2018-01-16T12:30:25.646Z,28770.5
2018-01-16T12:31:25.650Z,26062.5
2018-01-16T12:32:25.900Z,24214.5
2018-01-16T12:33:25.679Z,23094.9
2018-01-16T12:34:25.889Z,22773.1
2018-01-16T12:35:25.645Z,23188.8
2018-01-16T12:36:25.648Z,23272.7
2018-01-16T12:37:26.739Z,23630.4
2018-01-16T12:38:25.683Z,24089.5
2018-01-16T12:39:25.852Z,25076.5
2018-01-16T12:40:25.651Z,26399.9
2018-01-16T12:41:25.652Z,29291.0
2018-01-16T12:42:30.662Z,32485.9
2018-01-16T12:43:25.687Z,35817.3
2018-01-16T12:44:25.859Z,39193.3
2018-01-16T12:45:25.658Z,42797.3
2018-01-16T12:46:25.650Z,46394.2
2018-01-16T12:47:25.654Z,49807.3
2018-01-16T12:48:25.689Z,52299.3
2018-01-16T12:49:25.889Z,54575.7
2018-01-16T12:50:25.659Z,56246.5
2018-01-16T12:51:25.666Z,58135.5
2018-01-16T12:52:25.657Z,59941.9
2018-01-16T12:53:25.654Z,61119.0
2018-01-16T12:54:26.184Z,61213.1
2018-01-16T12:55:25.659Z,60342.0
2018-01-16T12:56:25.657Z,58274.2
2018-01-16T12:57:25.660Z,56381.6
2018-01-16T12:58:25.660Z,55068.9
2018-01-16T12:59:25.893Z,54960.4
2018-01-16T13:00:25.659Z,54960.4
2018-01-16T13:01:25.660Z,54322.8
2018-01-16T13:02:25.674Z,52752.8
2018-01-16T13:03:25.694Z,50791.9
2018-01-16T13:04:25.866Z,48488.8
2018-01-16T13:05:25.662Z,46490.5
2018-01-16T13:06:25.674Z,43928.5
2018-01-16T13:07:25.666Z,40815.4
2018-01-16T13:08:25.690Z,38332.2
2018-01-16T13:09:25.883Z,36821.9
2018-01-16T13:10:25.663Z,35911.5
2018-01-16T13:11:25.698Z,34945.9
2018-01-16T13:12:25.686Z,33709.2
2018-01-16T13:13:26.695Z,31684.9
2018-01-16T13:14:25.914Z,28347.8
2018-01-16T13:15:25.663Z,24908.5
2018-01-16T13:16:25.699Z,21942.9
2018-01-16T13:17:25.665Z,19748.8
2018-01-16T13:18:25.668Z,18648.9
2018-01-16T13:19:25.869Z,17902.9
2018-01-16T13:20:25.665Z,16495.6
2018-01-16T13:21:25.702Z,15547.3
2018-01-16T13:22:25.669Z,15235.1
2018-01-16T13:23:25.677Z,15035.1
2018-01-16T13:24:25.885Z,14827.1
2018-01-16T13:25:25.681Z,14833.7
2018-01-16T13:26:26.726Z,14556.0
2018-01-16T13:27:25.697Z,13915.3
2018-01-16T13:28:25.677Z,13291.1
2018-01-16T13:29:25.887Z,12692.3
2018-01-16T13:30:25.677Z,12163.0
2018-01-16T13:31:25.676Z,11977.4
2018-01-16T13:32:25.708Z,12412.5
2018-01-16T13:33:25.678Z,13360.9
2018-01-16T13:34:25.883Z,14288.5
2018-01-16T13:35:25.680Z,15113.3
2018-01-16T13:36:26.708Z,15920.9
2018-01-16T13:37:25.712Z,16757.3
2018-01-16T13:38:25.687Z,17390.1
2018-01-16T13:39:25.887Z,17926.7
2018-01-16T13:40:25.687Z,18232.4
2018-01-16T13:41:25.685Z,18800.2
2018-01-16T13:42:25.725Z,20017.3
2018-01-16T13:43:25.686Z,21528.6
2018-01-16T13:44:25.902Z,23267.5
2018-01-16T13:45:25.691Z,25047.5
2018-01-16T13:46:25.704Z,26712.9
2018-01-16T13:47:25.712Z,27939.3
2018-01-16T13:48:25.691Z,28557.9
2018-01-16T13:49:25.893Z,28949.6
2018-01-16T13:50:25.687Z,29486.1
2018-01-16T13:51:25.688Z,30031.1
2018-01-16T13:52:25.713Z,30455.5
2018-01-16T13:53:25.686Z,30945.3
2018-01-16T13:54:25.894Z,31360.7
2018-01-16T13:55:25.697Z,31790.8
2018-01-16T13:56:25.692Z,32308.1
2018-01-16T13:57:25.717Z,32627.6
2018-01-16T13:58:25.731Z,32835.5
2018-01-16T13:59:25.900Z,32893.9
2018-01-16T14:00:25.697Z,32829.5
2018-01-16T14:01:25.694Z,32692.5
2018-01-16T14:02:25.694Z,32533.5
2018-01-16T14:03:25.729Z,32359.6
2018-01-16T14:04:25.899Z,32184.5
2018-01-16T14:05:25.694Z,32015.5
2018-01-16T14:06:25.691Z,31849.9
2018-01-16T14:07:25.693Z,31698.9
2018-01-16T14:08:25.721Z,31574.0
2018-01-16T14:09:25.902Z,31451.6
2018-01-16T14:10:25.699Z,31348.0
2018-01-16T14:11:25.725Z,31247.0
2018-01-16T14:12:25.703Z,31116.9
2018-01-16T14:13:25.694Z,30972.3
2018-01-16T14:14:25.922Z,30805.6
2018-01-16T14:15:25.699Z,30617.1
2018-01-16T14:16:25.724Z,30393.8
2018-01-16T14:17:25.714Z,30115.4
2018-01-16T14:18:25.703Z,29784.5
2018-01-16T14:19:25.908Z,29389.7
2018-01-16T14:20:25.739Z,28929.7
2018-01-16T14:21:25.703Z,28399.4
2018-01-16T14:22:25.704Z,27793.4
2018-01-16T14:23:25.703Z,27117.2
2018-01-16T14:24:25.930Z,26377.7
2018-01-16T14:25:25.731Z,25586.3
2018-01-16T14:26:25.707Z,24755.3
2018-01-16T14:27:25.743Z,23913.3
2018-01-16T14:28:25.704Z,23048.2
2018-01-16T14:29:25.912Z,22176.5
2018-01-16T14:30:25.961Z,21283.5
2018-01-16T14:31:25.705Z,20405.2
2018-01-16T14:32:25.725Z,19563.4
2018-01-16T14:33:25.705Z,18771.1
2018-01-16T14:34:25.914Z,18032.2
2018-01-16T14:35:25.709Z,17335.2
2018-01-16T14:36:25.702Z,16700.0
2018-01-16T14:37:25.735Z,16178.0
2018-01-16T14:38:25.707Z,15724.6
2018-01-16T14:39:25.911Z,15365.4
2018-01-16T14:40:25.708Z,15053.9
2018-01-16T14:41:25.701Z,14784.3
2018-01-16T14:42:25.736Z,14559.9
2018-01-16T14:43:25.700Z,14401.3
2018-01-16T14:44:25.911Z,14279.9
2018-01-16T14:45:26.739Z,14234.2
2018-01-16T14:46:25.708Z,14200.3
2018-01-16T14:47:30.738Z,14225.0
2018-01-16T14:48:25.705Z,14348.1
2018-01-16T14:49:25.908Z,14533.1
2018-01-16T14:50:25.711Z,14705.4
2018-01-16T14:51:25.703Z,14799.9
2018-01-16T14:52:25.702Z,14735.5
2018-01-16T14:53:25.735Z,14575.3
2018-01-16T14:54:25.911Z,14270.3
2018-01-16T14:55:25.706Z,13853.1
2018-01-16T14:56:25.705Z,13341.9
2018-01-16T14:57:25.703Z,12840.9
2018-01-16T14:58:25.740Z,12362.4
2018-01-16T14:59:25.922Z,11756.5
2018-01-16T15:00:25.936Z,10950.6
2018-01-16T15:01:25.702Z,10079.5
2018-01-16T15:02:25.706Z,9167.4
2018-01-16T15:03:25.734Z,8191.2
2018-01-16T15:04:25.931Z,7182.3
2018-01-16T15:05:25.702Z,6225.6
2018-01-16T15:06:25.708Z,5377.0
2018-01-16T15:07:25.703Z,4640.5
2018-01-16T15:08:25.729Z,3984.9
2018-01-16T15:09:25.916Z,3443.2
2018-01-16T15:10:25.701Z,3056.8
2018-01-16T15:11:25.732Z,2815.9
2018-01-16T15:12:25.707Z,2573.9
2018-01-16T15:13:25.707Z,2288.0
2018-01-16T15:14:25.933Z,2091.0
2018-01-16T15:15:25.703Z,2054.9
2018-01-16T15:16:26.738Z,2161.8
2018-01-16T15:17:25.701Z,2264.8
2018-01-16T15:18:25.705Z,2331.3
2018-01-16T15:19:27.084Z,2364.0
2018-01-16T15:20:25.702Z,2374.9
2018-01-16T15:21:25.703Z,2359.0
2018-01-16T15:22:25.710Z,2334.4
2018-01-16T15:23:30.707Z,2318.5
2018-01-16T15:24:25.943Z,2317.3
2018-01-16T15:25:25.714Z,2276.3
2018-01-16T15:26:25.743Z,2198.7
2018-01-16T15:27:25.704Z,2119.4
2018-01-16T15:28:25.705Z,2047.6
2018-01-16T15:29:26.192Z,2015.5
2018-01-16T15:30:25.709Z,1999.1
2018-01-16T15:31:25.734Z,1919.4
2018-01-16T15:32:25.727Z,1842.6
2018-01-16T15:33:25.702Z,1785.1
2018-01-16T15:34:25.906Z,1749.5
2018-01-16T15:35:25.703Z,1729.5
2018-01-16T15:36:25.731Z,1717.9
2018-01-16T15:37:25.699Z,1708.0
2018-01-16T15:38:25.703Z,1691.1
2018-01-16T15:39:25.913Z,1658.9
2018-01-16T15:40:25.709Z,1617.5
2018-01-16T15:41:25.736Z,1565.8
2018-01-16T15:42:25.704Z,1502.7
2018-01-16T15:43:25.704Z,1427.7
2018-01-16T15:44:26.162Z,1342.2
2018-01-16T15:45:25.702Z,1248.2
2018-01-16T15:46:25.735Z,1150.9
2018-01-16T15:47:25.699Z,1053.3
2018-01-16T15:48:25.699Z,957.8
2018-01-16T15:49:25.910Z,865.7
2018-01-16T15:50:26.730Z,778.5
2018-01-16T15:51:25.740Z,696.8
2018-01-16T15:52:25.700Z,621.1
2018-01-16T15:53:25.710Z,551.1
2018-01-16T15:54:25.908Z,486.7
2018-01-16T15:55:25.712Z,428.1
2018-01-16T15:56:25.748Z,375.3
2018-01-16T15:57:25.705Z,327.6
2018-01-16T15:58:25.705Z,285.1
2018-01-16T15:59:25.916Z,247.9
2018-01-16T16:00:25.703Z,215.2
2018-01-16T16:01:25.727Z,186.1
2018-01-16T16:02:25.732Z,160.1
2018-01-16T16:03:25.706Z,136.9
2018-01-16T16:04:25.909Z,116.3
2018-01-16T16:05:25.712Z,98.1
2018-01-16T16:06:25.728Z,82.3
2018-01-16T16:07:25.709Z,68.7
2018-01-16T16:08:25.737Z,57.2
2018-01-16T16:09:25.916Z,47.6
2018-01-16T16:10:25.713Z,39.5
2018-01-16T16:11:25.705Z,32.8
2018-01-16T16:12:25.708Z,27.1
2018-01-16T16:13:25.740Z,22.3
2018-01-16T16:14:25.914Z,18.3
2018-01-16T16:15:25.706Z,14.9
2018-01-16T16:16:25.706Z,12.0
2018-01-16T16:17:25.706Z,9.7
2018-01-16T16:18:25.735Z,7.9
2018-01-16T16:19:25.958Z,6.5
2018-01-16T16:20:25.706Z,5.3
2018-01-16T16:21:25.709Z,4.5
2018-01-16T16:22:25.708Z,3.7
2018-01-16T16:23:25.747Z,3.1
2018-01-16T16:24:25.912Z,2.7
2018-01-16T16:25:25.709Z,2.3
2018-01-16T16:26:30.719Z,1.9
2018-01-16T16:27:25.710Z,1.7
2018-01-16T16:28:25.742Z,1.4
2018-01-16T16:29:25.952Z,1.2
2018-01-16T16:30:25.710Z,1.0
2018-01-16T16:31:25.710Z,0.9
2018-01-16T16:32:25.705Z,0.7
2018-01-16T16:33:25.780Z,0.6
2018-01-16T16:34:25.910Z,0.5
2018-01-16T16:36:25.800Z,0.4
2018-01-16T16:37:25.713Z,0.3
2018-01-16T16:39:25.952Z,0.2
2018-01-16T16:40:25.718Z,0.1
